Map

Track Data

SID SEASON NUMBER BASIN SUBBASIN NAME ISO_TIME NATURE LAT LON WMO_WIND WMO_PRES WMO_AGENCY TRACK_TYPE DIST2LAND LANDFALL IFLAG USA_AGENCY USA_ATCF_ID USA_LAT USA_LON USA_RECORD USA_STATUS USA_WIND USA_PRES USA_SSHS USA_R34_NE USA_R34_SE USA_R34_SW USA_R34_NW USA_R50_NE USA_R50_SE USA_R50_SW USA_R50_NW USA_R64_NE USA_R64_SE USA_R64_SW USA_R64_NW USA_POCI USA_ROCI USA_RMW USA_EYE TOKYO_LAT TOKYO_LON TOKYO_GRADE TOKYO_WIND TOKYO_PRES TOKYO_R50_DIR TOKYO_R50_LONG TOKYO_R50_SHORT TOKYO_R30_DIR TOKYO_R30_LONG TOKYO_R30_SHORT TOKYO_LAND CMA_LAT CMA_LON CMA_CAT CMA_WIND CMA_PRES HKO_LAT HKO_LON HKO_CAT HKO_WIND HKO_PRES NEWDELHI_LAT NEWDELHI_LON NEWDELHI_GRADE NEWDELHI_WIND NEWDELHI_PRES NEWDELHI_CI NEWDELHI_DP NEWDELHI_POCI REUNION_LAT REUNION_LON REUNION_TYPE REUNION_WIND REUNION_PRES REUNION_TNUM REUNION_CI REUNION_RMW REUNION_R34_NE REUNION_R34_SE REUNION_R34_SW REUNION_R34_NW REUNION_R50_NE REUNION_R50_SE REUNION_R50_SW REUNION_R50_NW REUNION_R64_NE REUNION_R64_SE REUNION_R64_SW REUNION_R64_NW BOM_LAT BOM_LON BOM_TYPE BOM_WIND BOM_PRES BOM_TNUM BOM_CI BOM_RMW BOM_R34_NE BOM_R34_SE BOM_R34_SW BOM_R34_NW BOM_R50_NE BOM_R50_SE BOM_R50_SW BOM_R50_NW BOM_R64_NE BOM_R64_SE BOM_R64_SW BOM_R64_NW BOM_ROCI BOM_POCI BOM_EYE BOM_POS_METHOD BOM_PRES_METHOD NADI_LAT NADI_LON NADI_CAT NADI_WIND NADI_PRES WELLINGTON_LAT WELLINGTON_LON WELLINGTON_WIND WELLINGTON_PRES DS824_LAT DS824_LON DS824_STAGE DS824_WIND DS824_PRES TD9636_LAT TD9636_LON TD9636_STAGE TD9636_WIND TD9636_PRES TD9635_LAT TD9635_LON TD9635_WIND TD9635_PRES TD9635_ROCI NEUMANN_LAT NEUMANN_LON NEUMANN_CLASS NEUMANN_WIND NEUMANN_PRES MLC_LAT MLC_LON MLC_CLASS MLC_WIND MLC_PRES USA_GUST BOM_GUST BOM_GUST_PER REUNION_GUST REUNION_GUST_PER USA_SEAHGT USA_SEARAD_NE USA_SEARAD_SE USA_SEARAD_SW USA_SEARAD_NW STORM_SPEED STORM_DIR
1992210N14254 1992 58 EP MM ISIS 1992-07-28 00:00:00 TS 14.4000 -106.100 25 1008 hurdat_epa main 517 510 O_____________ hurdat_epa EP101992 14.4000 -106.100 TD 25 1008 -1 8 311
1992210N14254 1992 58 EP MM ISIS 1992-07-28 03:00:00 TS 14.6449 -106.395 main 516 507 P_____________ EP101992 14.6449 -106.395 TD 25 1007 -1 8 306
1992210N14254 1992 58 EP MM ISIS 1992-07-28 06:00:00 TS 14.9000 -106.800 25 1007 hurdat_epa main 518 517 O_____________ hurdat_epa EP101992 14.9000 -106.800 TD 25 1007 -1 11 299
1992210N14254 1992 58 EP MM ISIS 1992-07-28 09:00:00 TS 15.1777 -107.378 main 525 525 P_____________ EP101992 15.1777 -107.378 TD 27 1006 -1 13 297
1992210N14254 1992 58 EP MM ISIS 1992-07-28 12:00:00 TS 15.5000 -108.000 30 1006 hurdat_epa main 535 532 O_____________ hurdat_epa EP101992 15.5000 -108.000 TD 30 1006 -1 13 303
1992210N14254 1992 58 EP MM ISIS 1992-07-28 15:00:00 TS 15.8923 -108.515 main 538 538 P_____________ EP101992 15.8923 -108.515 TD 32 1005 -1 13 310
1992210N14254 1992 58 EP MM ISIS 1992-07-28 18:00:00 TS 16.3000 -109.000 35 1004 hurdat_epa main 545 545 O_____________ hurdat_epa EP101992 16.3000 -109.000 TS 35 1004 0 12 309
1992210N14254 1992 58 EP MM ISIS 1992-07-28 21:00:00 TS 16.6649 -109.508 main 556 556 P_____________ EP101992 16.6649 -109.508 TS 40 1002 0 12 306
1992210N14254 1992 58 EP MM ISIS 1992-07-29 00:00:00 TS 17.0000 -110.000 45 1001 hurdat_epa main 580 580 O_____________ hurdat_epa EP101992 17.0000 -110.000 TS 45 1001 0 11 305
1992210N14254 1992 58 EP MM ISIS 1992-07-29 03:00:00 TS 17.3073 -110.458 main 607 598 P_____________ EP101992 17.3073 -110.458 TS 45 1000 0 11 305
1992210N14254 1992 58 EP MM ISIS 1992-07-29 06:00:00 TS 17.6000 -110.900 45 1000 hurdat_epa main 600 575 O_____________ hurdat_epa EP101992 17.6000 -110.900 TS 45 1000 0 10 305
1992210N14254 1992 58 EP MM ISIS 1992-07-29 09:00:00 TS 17.9074 -111.350 main 577 554 P_____________ EP101992 17.9074 -111.350 TS 45 1000 0 10 305
1992210N14254 1992 58 EP MM ISIS 1992-07-29 12:00:00 TS 18.2000 -111.800 45 1000 hurdat_epa main 558 548 O_____________ hurdat_epa EP101992 18.2000 -111.800 TS 45 1000 0 10 303
1992210N14254 1992 58 EP MM ISIS 1992-07-29 15:00:00 TS 18.4574 -112.258 main 547 541 P_____________ EP101992 18.4574 -112.258 TS 45 999 0 10 300
1992210N14254 1992 58 EP MM ISIS 1992-07-29 18:00:00 TS 18.7000 -112.700 45 999 hurdat_epa main 547 539 O_____________ hurdat_epa EP101992 18.7000 -112.700 TS 45 999 0 9 302
1992210N14254 1992 58 EP MM ISIS 1992-07-29 21:00:00 TS 18.9498 -113.100 main 551 541 P_____________ EP101992 18.9498 -113.100 TS 45 999 0 9 303
1992210N14254 1992 58 EP MM ISIS 1992-07-30 00:00:00 TS 19.2000 -113.500 45 999 hurdat_epa main 550 549 O_____________ hurdat_epa EP101992 19.2000 -113.500 TS 45 999 0 9 302
1992210N14254 1992 58 EP MM ISIS 1992-07-30 03:00:00 TS 19.4499 -113.943 main 562 562 P_____________ EP101992 19.4499 -113.943 TS 47 998 0 10 300
1992210N14254 1992 58 EP MM ISIS 1992-07-30 06:00:00 TS 19.7000 -114.400 50 998 hurdat_epa main 579 579 O_____________ hurdat_epa EP101992 19.7000 -114.400 TS 50 998 0 10 300
1992210N14254 1992 58 EP MM ISIS 1992-07-30 09:00:00 TS 19.9499 -114.850 main 605 594 P_____________ EP101992 19.9499 -114.850 TS 50 997 0 10 301
1992210N14254 1992 58 EP MM ISIS 1992-07-30 12:00:00 TS 20.2000 -115.300 50 996 hurdat_epa main 600 597 O_____________ hurdat_epa EP101992 20.2000 -115.300 TS 50 996 0 10 301
1992210N14254 1992 58 EP MM ISIS 1992-07-30 15:00:00 TS 20.4574 -115.750 main 603 601 P_____________ EP101992 20.4574 -115.750 TS 52 995 0 10 301
1992210N14254 1992 58 EP MM ISIS 1992-07-30 18:00:00 TS 20.7000 -116.200 55 994 hurdat_epa main 613 612 O_____________ hurdat_epa EP101992 20.7000 -116.200 TS 55 994 0 10 298
1992210N14254 1992 58 EP MM ISIS 1992-07-30 21:00:00 TS 20.9073 -116.643 main 626 626 P_____________ EP101992 20.9073 -116.643 TS 55 993 0 9 295
1992210N14254 1992 58 EP MM ISIS 1992-07-31 00:00:00 TS 21.1000 -117.100 55 992 hurdat_epa main 649 649 O_____________ hurdat_epa EP101992 21.1000 -117.100 TS 55 992 0 10 295
1992210N14254 1992 58 EP MM ISIS 1992-07-31 03:00:00 TS 21.3224 -117.592 main 676 676 P_____________ EP101992 21.3224 -117.592 TS 55 992 0 10 293
1992210N14254 1992 58 EP MM ISIS 1992-07-31 06:00:00 TS 21.5000 -118.100 55 993 hurdat_epa main 706 706 O_____________ hurdat_epa EP101992 21.5000 -118.100 TS 55 993 0 10 285
1992210N14254 1992 58 EP MM ISIS 1992-07-31 09:00:00 TS 21.5724 -118.608 main 745 745 P_____________ EP101992 21.5724 -118.608 TS 55 994 0 9 276
1992210N14254 1992 58 EP MM ISIS 1992-07-31 12:00:00 TS 21.6000 -119.100 55 995 hurdat_epa main 785 785 O_____________ hurdat_epa EP101992 21.6000 -119.100 TS 55 995 0 9 275
1992210N14254 1992 58 EP MM ISIS 1992-07-31 15:00:00 TS 21.6498 -119.558 main 817 808 P_____________ EP101992 21.6498 -119.558 TS 50 997 0 8 277
1992210N14254 1992 58 EP MM ISIS 1992-07-31 18:00:00 TS 21.7000 -120.000 45 999 hurdat_epa main 835 835 O_____________ hurdat_epa EP101992 21.7000 -120.000 TS 45 999 0 8 277
1992210N14254 1992 58 EP MM ISIS 1992-07-31 21:00:00 TS 21.7499 -120.450 main 870 861 P_____________ EP101992 21.7499 -120.450 TS 40 1001 0 8 277
1992210N14254 1992 58 EP MM ISIS 1992-08-01 00:00:00 TS 21.8000 -120.900 35 1003 hurdat_epa main 887 887 O_____________ hurdat_epa EP101992 21.8000 -120.900 TS 35 1003 0 8 276
1992210N14254 1992 58 EP MM ISIS 1992-08-01 03:00:00 TS 21.8348 -121.343 main 915 915 P_____________ EP101992 21.8348 -121.343 TS 32 1004 -1 8 277
1992210N14254 1992 58 EP MM ISIS 1992-08-01 06:00:00 TS 21.9000 -121.800 30 1006 hurdat_epa main 943 943 O_____________ hurdat_epa EP101992 21.9000 -121.800 TD 30 1006 -1 9 283
1992210N14254 1992 58 EP MM ISIS 1992-08-01 09:00:00 TS 22.0423 -122.285 main 972 965 P_____________ EP101992 22.0423 -122.285 TD 27 1007 -1 10 288
1992210N14254 1992 58 EP MM ISIS 1992-08-01 12:00:00 TS 22.2000 -122.800 25 1008 hurdat_epa main 997 997 O_____________ hurdat_epa EP101992 22.2000 -122.800 TD 25 1008 -1 10 286
1992210N14254 1992 58 EP MM ISIS 1992-08-01 15:00:00 TS 22.3149 -123.343 main 1030 1030 P_____________ EP101992 22.3149 -123.343 TD 25 1008 -1 10 281
1992210N14254 1992 58 EP MM ISIS 1992-08-01 18:00:00 TS 22.4000 -123.900 25 1009 hurdat_epa main 1073 1073 O_____________ hurdat_epa EP101992 22.4000 -123.900 TD 25 1009 -1 10 278
1992210N14254 1992 58 EP MM ISIS 1992-08-01 21:00:00 TS 22.4578 -124.452 main 1117 1117 P_____________ EP101992 22.4578 -124.452 TD 25 1009 -1 10 276
1992210N14254 1992 58 EP MM ISIS 1992-08-02 00:00:00 TS 22.5000 -125.000 25 1010 hurdat_epa main 1161 O_____________ hurdat_epa EP101992 22.5000 -125.000 TD 25 1010 -1 10 275

About IBTrACS Database

This database is a web-friendly format of International Best Track Archive for Climate Stewardship (IBTrACS), a global best track data archive curated by NOAA dating back to 1842.

Updated: 2021-12-08